sensor_id;sensor_type;location;lat;lon;timestamp;P1;durP1;ratioP1;P2;durP2;ratioP2
17091;SDS011;8661;45.700;4.880;2023-10-08T00:01:08;8.60;;;4.10;;
17091;SDS011;8661;45.700;4.880;2023-10-08T00:03:39;9.17;;;3.70;;
17091;SDS011;8661;45.700;4.880;2023-10-08T00:06:13;6.73;;;3.40;;
17091;SDS011;8661;45.700;4.880;2023-10-08T00:08:40;6.67;;;3.53;;
17091;SDS011;8661;45.700;4.880;2023-10-08T00:11:07;7.93;;;3.60;;
17091;SDS011;8661;45.700;4.880;2023-10-08T00:13:36;6.40;;;3.83;;
17091;SDS011;8661;45.700;4.880;2023-10-08T00:16:07;4.80;;;3.30;;
17091;SDS011;8661;45.700;4.880;2023-10-08T00:18:36;6.47;;;3.43;;
17091;SDS011;8661;45.700;4.880;2023-10-08T00:21:07;7.27;;;3.73;;
17091;SDS011;8661;45.700;4.880;2023-10-08T00:23:42;6.20;;;3.27;;
17091;SDS011;8661;45.700;4.880;2023-10-08T00:26:15;7.90;;;3.63;;
17091;SDS011;8661;45.700;4.880;2023-10-08T00:28:43;7.53;;;3.57;;
17091;SDS011;8661;45.700;4.880;2023-10-08T00:31:12;8.53;;;3.13;;
17091;SDS011;8661;45.700;4.880;2023-10-08T00:33:44;4.77;;;3.07;;
17091;SDS011;8661;45.700;4.880;2023-10-08T00:36:10;7.73;;;3.80;;
17091;SDS011;8661;45.700;4.880;2023-10-08T00:38:44;7.33;;;3.43;;
17091;SDS011;8661;45.700;4.880;2023-10-08T00:41:14;6.83;;;3.60;;
17091;SDS011;8661;45.700;4.880;2023-10-08T00:43:41;7.10;;;3.80;;
17091;SDS011;8661;45.700;4.880;2023-10-08T00:46:10;5.30;;;3.10;;
17091;SDS011;8661;45.700;4.880;2023-10-08T00:48:46;7.97;;;3.70;;
17091;SDS011;8661;45.700;4.880;2023-10-08T00:51:13;5.53;;;3.27;;
17091;SDS011;8661;45.700;4.880;2023-10-08T00:53:52;6.00;;;3.47;;
17091;SDS011;8661;45.700;4.880;2023-10-08T00:56:36;6.93;;;3.30;;
17091;SDS011;8661;45.700;4.880;2023-10-08T00:59:21;6.60;;;3.57;;
17091;SDS011;8661;45.700;4.880;2023-10-08T01:01:50;7.23;;;3.87;;
17091;SDS011;8661;45.700;4.880;2023-10-08T01:04:25;8.23;;;4.00;;
17091;SDS011;8661;45.700;4.880;2023-10-08T01:06:52;5.90;;;3.50;;
17091;SDS011;8661;45.700;4.880;2023-10-08T01:09:24;11.03;;;3.50;;
17091;SDS011;8661;45.700;4.880;2023-10-08T01:12:10;7.87;;;3.80;;
17091;SDS011;8661;45.700;4.880;2023-10-08T01:14:40;8.20;;;3.53;;
17091;SDS011;8661;45.700;4.880;2023-10-08T01:17:08;5.67;;;3.13;;
17091;SDS011;8661;45.700;4.880;2023-10-08T01:19:39;5.97;;;3.20;;
17091;SDS011;8661;45.700;4.880;2023-10-08T01:22:11;9.53;;;3.43;;
17091;SDS011;8661;45.700;4.880;2023-10-08T01:24:43;7.10;;;3.63;;
17091;SDS011;8661;45.700;4.880;2023-10-08T01:27:11;7.27;;;3.40;;
17091;SDS011;8661;45.700;4.880;2023-10-08T01:29:38;5.20;;;3.40;;
17091;SDS011;8661;45.700;4.880;2023-10-08T01:32:09;7.47;;;3.80;;
17091;SDS011;8661;45.700;4.880;2023-10-08T01:34:36;7.30;;;3.67;;
17091;SDS011;8661;45.700;4.880;2023-10-08T01:37:04;7.40;;;3.80;;
17091;SDS011;8661;45.700;4.880;2023-10-08T01:39:36;7.77;;;3.57;;
17091;SDS011;8661;45.700;4.880;2023-10-08T01:42:05;5.50;;;3.00;;
17091;SDS011;8661;45.700;4.880;2023-10-08T01:44:32;7.60;;;3.80;;
17091;SDS011;8661;45.700;4.880;2023-10-08T01:47:00;11.17;;;3.70;;
17091;SDS011;8661;45.700;4.880;2023-10-08T01:49:29;6.77;;;3.57;;
17091;SDS011;8661;45.700;4.880;2023-10-08T01:51:58;5.97;;;3.43;;
17091;SDS011;8661;45.700;4.880;2023-10-08T01:54:32;10.37;;;3.60;;
17091;SDS011;8661;45.700;4.880;2023-10-08T01:57:02;7.07;;;3.87;;
17091;SDS011;8661;45.700;4.880;2023-10-08T01:59:31;8.13;;;3.50;;
17091;SDS011;8661;45.700;4.880;2023-10-08T02:01:59;4.30;;;2.70;;
17091;SDS011;8661;45.700;4.880;2023-10-08T02:04:26;6.47;;;3.53;;
17091;SDS011;8661;45.700;4.880;2023-10-08T02:06:53;6.50;;;3.30;;
17091;SDS011;8661;45.700;4.880;2023-10-08T02:09:20;7.33;;;3.23;;
17091;SDS011;8661;45.700;4.880;2023-10-08T02:11:51;6.07;;;3.17;;
17091;SDS011;8661;45.700;4.880;2023-10-08T02:14:20;6.27;;;3.63;;
17091;SDS011;8661;45.700;4.880;2023-10-08T02:16:50;7.80;;;3.57;;
17091;SDS011;8661;45.700;4.880;2023-10-08T02:19:21;8.60;;;3.60;;
17091;SDS011;8661;45.700;4.880;2023-10-08T02:21:52;8.47;;;3.33;;
17091;SDS011;8661;45.700;4.880;2023-10-08T02:24:19;7.00;;;3.40;;
17091;SDS011;8661;45.700;4.880;2023-10-08T02:26:49;6.93;;;3.60;;
17091;SDS011;8661;45.700;4.880;2023-10-08T02:29:17;11.37;;;3.70;;
17091;SDS011;8661;45.700;4.880;2023-10-08T02:31:46;7.03;;;3.83;;
17091;SDS011;8661;45.700;4.880;2023-10-08T02:34:13;9.30;;;4.33;;
17091;SDS011;8661;45.700;4.880;2023-10-08T02:36:40;7.73;;;3.73;;
17091;SDS011;8661;45.700;4.880;2023-10-08T02:39:07;8.73;;;3.73;;
17091;SDS011;8661;45.700;4.880;2023-10-08T02:41:41;5.57;;;3.17;;
17091;SDS011;8661;45.700;4.880;2023-10-08T02:44:11;7.37;;;3.80;;
17091;SDS011;8661;45.700;4.880;2023-10-08T02:46:39;7.33;;;4.10;;
17091;SDS011;8661;45.700;4.880;2023-10-08T02:49:09;8.20;;;3.83;;
17091;SDS011;8661;45.700;4.880;2023-10-08T02:51:37;6.67;;;3.50;;
17091;SDS011;8661;45.700;4.880;2023-10-08T02:54:06;7.07;;;4.00;;
17091;SDS011;8661;45.700;4.880;2023-10-08T02:56:41;8.00;;;4.30;;
17091;SDS011;8661;45.700;4.880;2023-10-08T02:59:10;6.90;;;4.20;;
17091;SDS011;8661;45.700;4.880;2023-10-08T03:01:38;8.40;;;4.37;;
17091;SDS011;8661;45.700;4.880;2023-10-08T03:04:06;8.43;;;3.80;;
17091;SDS011;8661;45.700;4.880;2023-10-08T03:06:42;7.90;;;4.00;;
17091;SDS011;8661;45.700;4.880;2023-10-08T03:09:11;6.17;;;3.77;;
17091;SDS011;8661;45.700;4.880;2023-10-08T03:11:39;9.23;;;3.80;;
17091;SDS011;8661;45.700;4.880;2023-10-08T03:14:12;10.43;;;4.13;;
17091;SDS011;8661;45.700;4.880;2023-10-08T03:16:46;7.00;;;4.40;;
17091;SDS011;8661;45.700;4.880;2023-10-08T03:19:15;11.40;;;4.70;;
17091;SDS011;8661;45.700;4.880;2023-10-08T03:21:45;8.17;;;3.83;;
17091;SDS011;8661;45.700;4.880;2023-10-08T03:24:17;9.63;;;3.90;;
17091;SDS011;8661;45.700;4.880;2023-10-08T03:26:56;7.17;;;4.00;;
17091;SDS011;8661;45.700;4.880;2023-10-08T03:29:32;8.70;;;3.60;;
17091;SDS011;8661;45.700;4.880;2023-10-08T03:32:05;7.27;;;3.57;;
17091;SDS011;8661;45.700;4.880;2023-10-08T03:34:39;9.23;;;3.80;;
17091;SDS011;8661;45.700;4.880;2023-10-08T03:37:08;7.83;;;3.50;;
17091;SDS011;8661;45.700;4.880;2023-10-08T03:39:40;8.87;;;4.40;;
17091;SDS011;8661;45.700;4.880;2023-10-08T03:42:20;9.90;;;3.53;;
17091;SDS011;8661;45.700;4.880;2023-10-08T03:44:47;6.63;;;3.23;;
17091;SDS011;8661;45.700;4.880;2023-10-08T03:47:17;8.07;;;4.00;;
17091;SDS011;8661;45.700;4.880;2023-10-08T03:49:48;5.90;;;3.20;;
17091;SDS011;8661;45.700;4.880;2023-10-08T03:52:16;5.13;;;3.53;;
17091;SDS011;8661;45.700;4.880;2023-10-08T03:54:47;5.83;;;3.10;;
17091;SDS011;8661;45.700;4.880;2023-10-08T03:57:29;11.83;;;3.80;;
17091;SDS011;8661;45.700;4.880;2023-10-08T04:00:07;6.27;;;3.17;;
17091;SDS011;8661;45.700;4.880;2023-10-08T04:02:38;6.60;;;3.23;;
17091;SDS011;8661;45.700;4.880;2023-10-08T04:05:08;7.70;;;3.77;;
17091;SDS011;8661;45.700;4.880;2023-10-08T04:07:44;8.67;;;4.00;;
17091;SDS011;8661;45.700;4.880;2023-10-08T04:10:41;8.10;;;3.57;;
17091;SDS011;8661;45.700;4.880;2023-10-08T04:13:33;6.03;;;3.73;;
17091;SDS011;8661;45.700;4.880;2023-10-08T04:16:04;7.97;;;3.63;;
17091;SDS011;8661;45.700;4.880;2023-10-08T04:18:31;6.53;;;3.50;;
17091;SDS011;8661;45.700;4.880;2023-10-08T04:21:07;10.53;;;3.50;;
17091;SDS011;8661;45.700;4.880;2023-10-08T04:23:39;9.70;;;3.77;;
17091;SDS011;8661;45.700;4.880;2023-10-08T04:26:09;6.67;;;2.97;;
17091;SDS011;8661;45.700;4.880;2023-10-08T04:28:37;5.40;;;3.50;;
17091;SDS011;8661;45.700;4.880;2023-10-08T04:31:06;6.07;;;3.57;;
17091;SDS011;8661;45.700;4.880;2023-10-08T04:33:43;6.90;;;3.87;;
17091;SDS011;8661;45.700;4.880;2023-10-08T04:36:13;5.70;;;3.20;;
17091;SDS011;8661;45.700;4.880;2023-10-08T04:38:43;7.37;;;3.63;;
17091;SDS011;8661;45.700;4.880;2023-10-08T04:41:14;5.10;;;3.40;;
17091;SDS011;8661;45.700;4.880;2023-10-08T04:43:44;7.73;;;3.17;;
17091;SDS011;8661;45.700;4.880;2023-10-08T04:46:14;7.43;;;3.30;;
17091;SDS011;8661;45.700;4.880;2023-10-08T04:48:59;7.27;;;3.70;;
17091;SDS011;8661;45.700;4.880;2023-10-08T04:51:31;5.83;;;3.53;;
17091;SDS011;8661;45.700;4.880;2023-10-08T04:54:08;6.27;;;3.47;;
17091;SDS011;8661;45.700;4.880;2023-10-08T04:56:41;8.73;;;4.30;;
17091;SDS011;8661;45.700;4.880;2023-10-08T04:59:08;8.40;;;3.53;;
17091;SDS011;8661;45.700;4.880;2023-10-08T05:01:36;7.47;;;3.83;;
17091;SDS011;8661;45.700;4.880;2023-10-08T05:04:12;8.83;;;4.03;;
17091;SDS011;8661;45.700;4.880;2023-10-08T05:06:59;8.43;;;3.77;;
17091;SDS011;8661;45.700;4.880;2023-10-08T05:09:58;6.90;;;3.50;;
17091;SDS011;8661;45.700;4.880;2023-10-08T05:12:47;8.40;;;3.70;;
17091;SDS011;8661;45.700;4.880;2023-10-08T05:15:26;7.57;;;3.63;;
17091;SDS011;8661;45.700;4.880;2023-10-08T05:18:02;7.07;;;3.73;;
17091;SDS011;8661;45.700;4.880;2023-10-08T05:20:39;9.57;;;4.10;;
17091;SDS011;8661;45.700;4.880;2023-10-08T05:23:23;7.93;;;3.20;;
17091;SDS011;8661;45.700;4.880;2023-10-08T05:26:11;5.33;;;3.33;;
17091;SDS011;8661;45.700;4.880;2023-10-08T05:28:46;7.07;;;3.70;;
17091;SDS011;8661;45.700;4.880;2023-10-08T05:31:26;6.63;;;3.10;;
17091;SDS011;8661;45.700;4.880;2023-10-08T05:34:11;4.53;;;2.97;;
17091;SDS011;8661;45.700;4.880;2023-10-08T05:36:43;6.10;;;3.30;;
17091;SDS011;8661;45.700;4.880;2023-10-08T05:39:36;4.57;;;3.07;;
17091;SDS011;8661;45.700;4.880;2023-10-08T05:42:09;5.30;;;3.17;;
17091;SDS011;8661;45.700;4.880;2023-10-08T05:44:38;10.93;;;3.83;;
17091;SDS011;8661;45.700;4.880;2023-10-08T05:47:10;5.00;;;3.30;;
17091;SDS011;8661;45.700;4.880;2023-10-08T05:50:03;8.00;;;3.23;;
17091;SDS011;8661;45.700;4.880;2023-10-08T05:52:49;7.27;;;3.73;;
17091;SDS011;8661;45.700;4.880;2023-10-08T05:55:28;9.47;;;3.47;;
17091;SDS011;8661;45.700;4.880;2023-10-08T05:58:02;7.50;;;3.67;;
17091;SDS011;8661;45.700;4.880;2023-10-08T06:00:40;7.87;;;3.67;;
17091;SDS011;8661;45.700;4.880;2023-10-08T06:03:31;7.50;;;3.83;;
17091;SDS011;8661;45.700;4.880;2023-10-08T06:06:01;12.40;;;4.03;;
17091;SDS011;8661;45.700;4.880;2023-10-08T06:08:43;10.20;;;3.77;;
17091;SDS011;8661;45.700;4.880;2023-10-08T06:11:32;8.30;;;4.00;;
17091;SDS011;8661;45.700;4.880;2023-10-08T06:14:07;7.90;;;3.60;;
17091;SDS011;8661;45.700;4.880;2023-10-08T06:16:42;7.30;;;3.60;;
17091;SDS011;8661;45.700;4.880;2023-10-08T06:19:10;9.53;;;3.73;;
17091;SDS011;8661;45.700;4.880;2023-10-08T06:21:38;5.80;;;3.37;;
17091;SDS011;8661;45.700;4.880;2023-10-08T06:24:05;6.60;;;3.33;;
17091;SDS011;8661;45.700;4.880;2023-10-08T06:26:35;7.47;;;3.93;;
17091;SDS011;8661;45.700;4.880;2023-10-08T06:29:09;5.57;;;3.20;;
17091;SDS011;8661;45.700;4.880;2023-10-08T06:31:52;7.37;;;3.27;;
17091;SDS011;8661;45.700;4.880;2023-10-08T06:34:20;6.30;;;3.93;;
17091;SDS011;8661;45.700;4.880;2023-10-08T06:36:52;8.40;;;3.57;;
17091;SDS011;8661;45.700;4.880;2023-10-08T06:39:20;7.97;;;3.87;;
17091;SDS011;8661;45.700;4.880;2023-10-08T06:41:51;7.13;;;3.60;;
17091;SDS011;8661;45.700;4.880;2023-10-08T06:44:21;7.33;;;3.67;;
17091;SDS011;8661;45.700;4.880;2023-10-08T06:46:49;6.87;;;3.47;;
17091;SDS011;8661;45.700;4.880;2023-10-08T06:49:18;5.67;;;3.63;;
17091;SDS011;8661;45.700;4.880;2023-10-08T06:51:48;7.80;;;3.90;;
17091;SDS011;8661;45.700;4.880;2023-10-08T06:54:16;9.90;;;4.10;;
17091;SDS011;8661;45.700;4.880;2023-10-08T06:56:43;8.20;;;3.63;;
17091;SDS011;8661;45.700;4.880;2023-10-08T06:59:11;10.17;;;3.87;;
17091;SDS011;8661;45.700;4.880;2023-10-08T07:01:40;8.53;;;4.30;;
17091;SDS011;8661;45.700;4.880;2023-10-08T07:04:11;10.37;;;4.60;;
17091;SDS011;8661;45.700;4.880;2023-10-08T07:06:38;6.53;;;3.40;;
17091;SDS011;8661;45.700;4.880;2023-10-08T07:09:05;7.20;;;3.77;;
17091;SDS011;8661;45.700;4.880;2023-10-08T07:11:47;6.10;;;3.37;;
17091;SDS011;8661;45.700;4.880;2023-10-08T07:14:14;6.60;;;3.57;;
17091;SDS011;8661;45.700;4.880;2023-10-08T07:16:44;9.20;;;4.37;;
17091;SDS011;8661;45.700;4.880;2023-10-08T07:19:13;6.03;;;3.47;;
17091;SDS011;8661;45.700;4.880;2023-10-08T07:21:43;8.50;;;3.90;;
17091;SDS011;8661;45.700;4.880;2023-10-08T07:24:11;8.60;;;3.73;;
17091;SDS011;8661;45.700;4.880;2023-10-08T07:26:42;6.40;;;3.77;;
17091;SDS011;8661;45.700;4.880;2023-10-08T07:29:12;10.57;;;4.20;;
17091;SDS011;8661;45.700;4.880;2023-10-08T07:31:42;11.90;;;4.20;;
17091;SDS011;8661;45.700;4.880;2023-10-08T07:34:14;8.13;;;4.50;;
17091;SDS011;8661;45.700;4.880;2023-10-08T07:36:50;8.80;;;3.67;;
17091;SDS011;8661;45.700;4.880;2023-10-08T07:39:19;10.03;;;4.37;;
17091;SDS011;8661;45.700;4.880;2023-10-08T07:41:51;10.07;;;4.53;;
17091;SDS011;8661;45.700;4.880;2023-10-08T07:44:20;8.70;;;4.37;;
17091;SDS011;8661;45.700;4.880;2023-10-08T07:46:49;8.67;;;4.30;;
17091;SDS011;8661;45.700;4.880;2023-10-08T07:49:16;9.37;;;4.40;;
17091;SDS011;8661;45.700;4.880;2023-10-08T07:51:43;8.40;;;4.20;;
17091;SDS011;8661;45.700;4.880;2023-10-08T07:54:16;23.33;;;5.63;;
17091;SDS011;8661;45.700;4.880;2023-10-08T07:56:45;9.37;;;4.97;;
17091;SDS011;8661;45.700;4.880;2023-10-08T07:59:13;14.97;;;5.13;;
17091;SDS011;8661;45.700;4.880;2023-10-08T08:01:41;8.90;;;4.90;;
17091;SDS011;8661;45.700;4.880;2023-10-08T08:04:11;10.37;;;4.53;;
17091;SDS011;8661;45.700;4.880;2023-10-08T08:06:46;8.33;;;4.70;;
17091;SDS011;8661;45.700;4.880;2023-10-08T08:09:15;15.10;;;4.80;;
17091;SDS011;8661;45.700;4.880;2023-10-08T08:11:45;10.57;;;4.90;;
17091;SDS011;8661;45.700;4.880;2023-10-08T08:14:12;12.23;;;4.60;;
17091;SDS011;8661;45.700;4.880;2023-10-08T08:16:42;10.63;;;4.67;;
17091;SDS011;8661;45.700;4.880;2023-10-08T08:19:14;6.57;;;4.07;;
17091;SDS011;8661;45.700;4.880;2023-10-08T08:21:42;13.40;;;4.40;;
17091;SDS011;8661;45.700;4.880;2023-10-08T08:24:11;7.93;;;4.40;;
17091;SDS011;8661;45.700;4.880;2023-10-08T08:26:46;9.67;;;4.73;;
17091;SDS011;8661;45.700;4.880;2023-10-08T08:29:26;8.80;;;4.50;;
17091;SDS011;8661;45.700;4.880;2023-10-08T08:31:54;8.97;;;4.37;;
17091;SDS011;8661;45.700;4.880;2023-10-08T08:34:23;8.53;;;4.50;;
17091;SDS011;8661;45.700;4.880;2023-10-08T08:36:50;9.47;;;4.67;;
17091;SDS011;8661;45.700;4.880;2023-10-08T08:39:17;8.90;;;5.23;;
17091;SDS011;8661;45.700;4.880;2023-10-08T08:41:58;10.53;;;5.57;;
17091;SDS011;8661;45.700;4.880;2023-10-08T08:44:29;8.90;;;5.20;;
17091;SDS011;8661;45.700;4.880;2023-10-08T08:46:58;11.23;;;5.90;;
17091;SDS011;8661;45.700;4.880;2023-10-08T08:49:30;8.60;;;4.60;;
17091;SDS011;8661;45.700;4.880;2023-10-08T08:52:02;6.93;;;4.10;;
17091;SDS011;8661;45.700;4.880;2023-10-08T08:54:29;7.93;;;4.03;;
17091;SDS011;8661;45.700;4.880;2023-10-08T08:56:57;11.73;;;4.67;;
17091;SDS011;8661;45.700;4.880;2023-10-08T08:59:29;11.30;;;4.43;;
17091;SDS011;8661;45.700;4.880;2023-10-08T09:01:56;10.30;;;4.93;;
17091;SDS011;8661;45.700;4.880;2023-10-08T09:04:28;10.30;;;4.60;;
17091;SDS011;8661;45.700;4.880;2023-10-08T09:06:57;11.80;;;4.17;;
17091;SDS011;8661;45.700;4.880;2023-10-08T09:09:31;9.93;;;4.10;;
17091;SDS011;8661;45.700;4.880;2023-10-08T09:11:58;9.50;;;4.20;;
17091;SDS011;8661;45.700;4.880;2023-10-08T09:14:25;7.63;;;4.00;;
17091;SDS011;8661;45.700;4.880;2023-10-08T09:16:55;10.33;;;4.13;;
17091;SDS011;8661;45.700;4.880;2023-10-08T09:19:22;7.30;;;4.07;;
17091;SDS011;8661;45.700;4.880;2023-10-08T09:22:02;9.40;;;4.33;;
17091;SDS011;8661;45.700;4.880;2023-10-08T09:24:31;15.73;;;5.20;;
17091;SDS011;8661;45.700;4.880;2023-10-08T09:27:01;9.50;;;4.47;;
17091;SDS011;8661;45.700;4.880;2023-10-08T09:29:28;7.03;;;4.60;;
17091;SDS011;8661;45.700;4.880;2023-10-08T09:31:56;9.87;;;4.93;;
17091;SDS011;8661;45.700;4.880;2023-10-08T09:34:27;8.53;;;4.83;;
17091;SDS011;8661;45.700;4.880;2023-10-08T09:36:55;9.20;;;4.20;;
17091;SDS011;8661;45.700;4.880;2023-10-08T09:39:26;10.17;;;5.87;;
17091;SDS011;8661;45.700;4.880;2023-10-08T09:41:59;11.30;;;6.10;;
17091;SDS011;8661;45.700;4.880;2023-10-08T09:44:27;8.13;;;5.17;;
17091;SDS011;8661;45.700;4.880;2023-10-08T09:46:58;10.40;;;5.33;;
17091;SDS011;8661;45.700;4.880;2023-10-08T09:49:30;10.60;;;4.20;;
17091;SDS011;8661;45.700;4.880;2023-10-08T09:51:59;9.13;;;4.83;;
17091;SDS011;8661;45.700;4.880;2023-10-08T09:54:30;10.80;;;4.03;;
17091;SDS011;8661;45.700;4.880;2023-10-08T09:57:03;8.10;;;3.93;;
17091;SDS011;8661;45.700;4.880;2023-10-08T09:59:31;9.60;;;3.70;;
17091;SDS011;8661;45.700;4.880;2023-10-08T10:01:59;7.50;;;4.03;;
17091;SDS011;8661;45.700;4.880;2023-10-08T10:04:29;8.10;;;4.60;;
17091;SDS011;8661;45.700;4.880;2023-10-08T10:06:57;7.83;;;4.53;;
17091;SDS011;8661;45.700;4.880;2023-10-08T10:09:39;10.47;;;4.13;;
17091;SDS011;8661;45.700;4.880;2023-10-08T10:12:10;7.40;;;4.03;;
17091;SDS011;8661;45.700;4.880;2023-10-08T10:14:41;6.83;;;3.57;;
17091;SDS011;8661;45.700;4.880;2023-10-08T10:17:09;7.83;;;3.57;;
17091;SDS011;8661;45.700;4.880;2023-10-08T10:19:40;7.27;;;3.60;;
17091;SDS011;8661;45.700;4.880;2023-10-08T10:22:11;6.17;;;3.67;;
17091;SDS011;8661;45.700;4.880;2023-10-08T10:24:42;5.77;;;3.90;;
17091;SDS011;8661;45.700;4.880;2023-10-08T10:27:11;7.40;;;4.13;;
17091;SDS011;8661;45.700;4.880;2023-10-08T10:29:39;6.67;;;3.77;;
17091;SDS011;8661;45.700;4.880;2023-10-08T10:32:09;6.80;;;3.73;;
17091;SDS011;8661;45.700;4.880;2023-10-08T10:34:38;8.70;;;3.77;;
17091;SDS011;8661;45.700;4.880;2023-10-08T10:37:05;16.30;;;5.67;;
17091;SDS011;8661;45.700;4.880;2023-10-08T10:39:49;9.03;;;4.23;;
17091;SDS011;8661;45.700;4.880;2023-10-08T10:42:18;8.73;;;4.40;;
17091;SDS011;8661;45.700;4.880;2023-10-08T10:44:46;6.20;;;4.20;;
17091;SDS011;8661;45.700;4.880;2023-10-08T10:47:15;7.67;;;3.90;;
17091;SDS011;8661;45.700;4.880;2023-10-08T10:49:51;6.00;;;3.40;;
17091;SDS011;8661;45.700;4.880;2023-10-08T10:52:35;7.10;;;3.45;;
17091;SDS011;8661;45.700;4.880;2023-10-08T10:55:13;6.03;;;3.50;;
17091;SDS011;8661;45.700;4.880;2023-10-08T10:57:57;5.67;;;3.50;;
17091;SDS011;8661;45.700;4.880;2023-10-08T11:00:36;7.43;;;3.25;;
17091;SDS011;8661;45.700;4.880;2023-10-08T11:03:22;4.88;;;3.05;;
17091;SDS011;8661;45.700;4.880;2023-10-08T11:05:50;7.35;;;3.53;;
17091;SDS011;8661;45.700;4.880;2023-10-08T11:08:20;8.52;;;3.38;;
17091;SDS011;8661;45.700;4.880;2023-10-08T11:10:52;8.70;;;3.63;;
17091;SDS011;8661;45.700;4.880;2023-10-08T11:13:24;6.38;;;3.40;;
17091;SDS011;8661;45.700;4.880;2023-10-08T11:15:53;7.13;;;3.63;;
17091;SDS011;8661;45.700;4.880;2023-10-08T11:18:23;4.85;;;3.20;;
17091;SDS011;8661;45.700;4.880;2023-10-08T11:20:52;6.00;;;3.65;;
17091;SDS011;8661;45.700;4.880;2023-10-08T11:23:41;7.88;;;3.88;;
17091;SDS011;8661;45.700;4.880;2023-10-08T11:26:13;6.60;;;3.45;;
17091;SDS011;8661;45.700;4.880;2023-10-08T11:28:41;6.53;;;3.53;;
17091;SDS011;8661;45.700;4.880;2023-10-08T11:31:09;6.65;;;3.47;;
17091;SDS011;8661;45.700;4.880;2023-10-08T11:33:39;6.22;;;3.70;;
17091;SDS011;8661;45.700;4.880;2023-10-08T11:36:19;7.13;;;3.53;;
17091;SDS011;8661;45.700;4.880;2023-10-08T11:38:52;5.28;;;3.17;;
17091;SDS011;8661;45.700;4.880;2023-10-08T11:41:27;5.03;;;3.45;;
17091;SDS011;8661;45.700;4.880;2023-10-08T11:43:55;5.97;;;3.67;;
17091;SDS011;8661;45.700;4.880;2023-10-08T11:46:24;10.02;;;4.05;;
17091;SDS011;8661;45.700;4.880;2023-10-08T11:48:58;6.93;;;4.07;;
17091;SDS011;8661;45.700;4.880;2023-10-08T11:51:29;6.20;;;3.03;;
17091;SDS011;8661;45.700;4.880;2023-10-08T11:53:57;6.18;;;3.50;;
17091;SDS011;8661;45.700;4.880;2023-10-08T11:56:27;7.40;;;3.42;;
17091;SDS011;8661;45.700;4.880;2023-10-08T11:58:55;5.90;;;3.63;;
17091;SDS011;8661;45.700;4.880;2023-10-08T12:01:22;8.07;;;3.50;;
17091;SDS011;8661;45.700;4.880;2023-10-08T12:03:50;8.35;;;4.10;;
17091;SDS011;8661;45.700;4.880;2023-10-08T12:06:17;6.63;;;3.13;;
17091;SDS011;8661;45.700;4.880;2023-10-08T12:08:44;7.82;;;3.38;;
17091;SDS011;8661;45.700;4.880;2023-10-08T12:11:12;5.40;;;3.35;;
17091;SDS011;8661;45.700;4.880;2023-10-08T12:13:41;5.68;;;3.28;;
17091;SDS011;8661;45.700;4.880;2023-10-08T12:16:13;6.90;;;3.35;;
17091;SDS011;8661;45.700;4.880;2023-10-08T12:18:46;5.32;;;3.33;;
17091;SDS011;8661;45.700;4.880;2023-10-08T12:21:23;7.43;;;4.22;;
17091;SDS011;8661;45.700;4.880;2023-10-08T12:23:50;6.75;;;2.95;;
17091;SDS011;8661;45.700;4.880;2023-10-08T12:26:20;10.57;;;3.80;;
17091;SDS011;8661;45.700;4.880;2023-10-08T12:28:48;6.13;;;3.88;;
17091;SDS011;8661;45.700;4.880;2023-10-08T12:31:15;6.85;;;3.53;;
17091;SDS011;8661;45.700;4.880;2023-10-08T12:33:47;9.60;;;3.63;;
17091;SDS011;8661;45.700;4.880;2023-10-08T12:36:14;6.35;;;3.53;;
17091;SDS011;8661;45.700;4.880;2023-10-08T12:38:42;9.23;;;3.95;;
17091;SDS011;8661;45.700;4.880;2023-10-08T12:41:09;8.00;;;3.42;;
17091;SDS011;8661;45.700;4.880;2023-10-08T12:43:40;9.20;;;3.17;;
17091;SDS011;8661;45.700;4.880;2023-10-08T12:46:11;5.95;;;3.67;;
17091;SDS011;8661;45.700;4.880;2023-10-08T12:48:43;8.10;;;3.45;;
17091;SDS011;8661;45.700;4.880;2023-10-08T12:51:17;7.88;;;3.53;;
17091;SDS011;8661;45.700;4.880;2023-10-08T12:53:48;9.52;;;3.95;;
17091;SDS011;8661;45.700;4.880;2023-10-08T12:56:23;7.43;;;3.95;;
17091;SDS011;8661;45.700;4.880;2023-10-08T12:58:57;8.82;;;3.30;;
17091;SDS011;8661;45.700;4.880;2023-10-08T13:01:25;5.90;;;3.22;;
17091;SDS011;8661;45.700;4.880;2023-10-08T13:03:54;6.30;;;3.22;;
17091;SDS011;8661;45.700;4.880;2023-10-08T13:06:32;9.00;;;3.42;;
17091;SDS011;8661;45.700;4.880;2023-10-08T13:09:02;4.45;;;2.95;;
17091;SDS011;8661;45.700;4.880;2023-10-08T13:11:43;6.30;;;3.25;;
17091;SDS011;8661;45.700;4.880;2023-10-08T13:17:32;6.95;;;3.38;;
17091;SDS011;8661;45.700;4.880;2023-10-08T13:19:59;8.43;;;3.42;;
17091;SDS011;8661;45.700;4.880;2023-10-08T13:22:26;7.00;;;3.05;;
17091;SDS011;8661;45.700;4.880;2023-10-08T13:24:53;7.93;;;3.55;;
17091;SDS011;8661;45.700;4.880;2023-10-08T13:27:21;7.75;;;3.45;;
17091;SDS011;8661;45.700;4.880;2023-10-08T13:29:49;6.88;;;3.92;;
17091;SDS011;8661;45.700;4.880;2023-10-08T13:32:17;23.73;;;4.55;;
17091;SDS011;8661;45.700;4.880;2023-10-08T13:34:45;9.82;;;3.80;;
17091;SDS011;8661;45.700;4.880;2023-10-08T13:37:12;10.48;;;3.88;;
17091;SDS011;8661;45.700;4.880;2023-10-08T13:39:40;6.85;;;3.55;;
17091;SDS011;8661;45.700;4.880;2023-10-08T13:42:07;8.77;;;3.75;;
17091;SDS011;8661;45.700;4.880;2023-10-08T13:44:47;11.30;;;3.47;;
17091;SDS011;8661;45.700;4.880;2023-10-08T13:47:50;11.73;;;3.50;;
17091;SDS011;8661;45.700;4.880;2023-10-08T13:50:18;8.98;;;3.05;;
17091;SDS011;8661;45.700;4.880;2023-10-08T13:52:47;13.05;;;3.60;;
17091;SDS011;8661;45.700;4.880;2023-10-08T13:55:14;10.98;;;3.67;;
17091;SDS011;8661;45.700;4.880;2023-10-08T13:57:44;16.52;;;3.63;;
17091;SDS011;8661;45.700;4.880;2023-10-08T14:00:13;8.40;;;3.25;;
17091;SDS011;8661;45.700;4.880;2023-10-08T14:02:42;8.57;;;3.50;;
17091;SDS011;8661;45.700;4.880;2023-10-08T14:05:10;8.93;;;3.63;;
17091;SDS011;8661;45.700;4.880;2023-10-08T14:07:42;9.93;;;3.45;;
17091;SDS011;8661;45.700;4.880;2023-10-08T14:10:10;7.78;;;3.33;;
17091;SDS011;8661;45.700;4.880;2023-10-08T14:12:44;10.38;;;3.78;;
17091;SDS011;8661;45.700;4.880;2023-10-08T14:15:14;9.32;;;3.53;;
17091;SDS011;8661;45.700;4.880;2023-10-08T14:17:42;7.25;;;3.38;;
17091;SDS011;8661;45.700;4.880;2023-10-08T14:20:13;8.05;;;3.30;;
17091;SDS011;8661;45.700;4.880;2023-10-08T14:22:48;12.38;;;3.80;;
17091;SDS011;8661;45.700;4.880;2023-10-08T14:25:22;6.78;;;3.45;;
17091;SDS011;8661;45.700;4.880;2023-10-08T14:27:53;6.13;;;3.17;;
17091;SDS011;8661;45.700;4.880;2023-10-08T14:30:29;6.82;;;3.13;;
17091;SDS011;8661;45.700;4.880;2023-10-08T14:32:58;9.30;;;3.67;;
17091;SDS011;8661;45.700;4.880;2023-10-08T14:35:28;5.10;;;3.65;;
17091;SDS011;8661;45.700;4.880;2023-10-08T14:38:11;7.70;;;3.55;;
17091;SDS011;8661;45.700;4.880;2023-10-08T14:40:55;8.07;;;4.00;;
17091;SDS011;8661;45.700;4.880;2023-10-08T14:43:39;9.30;;;3.65;;
17091;SDS011;8661;45.700;4.880;2023-10-08T14:46:08;8.57;;;4.15;;
17091;SDS011;8661;45.700;4.880;2023-10-08T14:48:36;10.70;;;3.55;;
17091;SDS011;8661;45.700;4.880;2023-10-08T14:51:05;12.27;;;4.40;;
17091;SDS011;8661;45.700;4.880;2023-10-08T14:53:34;8.27;;;4.70;;
17091;SDS011;8661;45.700;4.880;2023-10-08T14:56:03;9.07;;;3.63;;
17091;SDS011;8661;45.700;4.880;2023-10-08T14:58:31;6.03;;;3.40;;
17091;SDS011;8661;45.700;4.880;2023-10-08T15:00:59;7.55;;;3.65;;
17091;SDS011;8661;45.700;4.880;2023-10-08T15:03:26;5.90;;;3.85;;
17091;SDS011;8661;45.700;4.880;2023-10-08T15:05:54;6.00;;;2.85;;
17091;SDS011;8661;45.700;4.880;2023-10-08T15:08:22;8.52;;;3.55;;
17091;SDS011;8661;45.700;4.880;2023-10-08T15:10:50;8.32;;;3.70;;
17091;SDS011;8661;45.700;4.880;2023-10-08T15:13:19;19.25;;;4.25;;
17091;SDS011;8661;45.700;4.880;2023-10-08T15:15:46;6.57;;;3.13;;
17091;SDS011;8661;45.700;4.880;2023-10-08T15:18:14;9.73;;;3.35;;
17091;SDS011;8661;45.700;4.880;2023-10-08T15:20:43;8.68;;;4.03;;
17091;SDS011;8661;45.700;4.880;2023-10-08T15:23:11;9.93;;;3.65;;
17091;SDS011;8661;45.700;4.880;2023-10-08T15:25:38;8.20;;;3.63;;
17091;SDS011;8661;45.700;4.880;2023-10-08T15:28:07;8.65;;;3.72;;
17091;SDS011;8661;45.700;4.880;2023-10-08T15:30:34;9.95;;;3.83;;